Time;durP1;ratioP1;P1;durP2;ratioP2;P2;SDS_P1;SDS_P2;PMS_P1;PMS_P2;Temp;Humidity;BMP_temperature;BMP_pressure;BME280_temperature;BME280_humidity;BME280_pressure;Samples;Min_cycle;Max_cycle;Signal;HPM_P1;HPM_P2
2022/12/19 00:01:35;;;;;;;54.67;20.98;;;;;;;;;;5016064;28;20029;-78
2022/12/19 00:04:01;;;;;;;49.65;19.73;;;;;;;;;;5032767;28;20065;-79
2022/12/19 00:06:27;;;;;;;52.88;19.48;;;;;;;;;;5033795;28;20107;-79
2022/12/19 00:08:53;;;;;;;54.10;20.50;;;;;;;;;;5016532;28;20037;-79
2022/12/19 00:11:21;;;;;;;50.25;20.40;;;;;;;;;;5032823;28;20083;-78
2022/12/19 00:13:46;;;;;;;59.47;21.25;;;;;;;;;;5016252;28;20124;-79
2022/12/19 00:16:22;;;;;;;54.53;20.60;;;;;;;;;;5032687;28;20104;-78
2022/12/19 00:18:48;;;;;;;53.33;19.33;;;;;;;;;;5032367;28;20406;-79
2022/12/19 00:21:18;;;;;;;50.05;20.63;;;;;;;;;;5015692;28;20033;-78
2022/12/19 00:23:44;;;;;;;54.83;21.38;;;;;;;;;;5016204;28;20038;-79
2022/12/19 00:26:17;;;;;;;55.92;22.10;;;;;;;;;;5033746;28;20025;-79
2022/12/19 00:28:44;;;;;;;53.85;20.50;;;;;;;;;;5002190;28;20045;-78
2022/12/19 00:31:14;;;;;;;57.28;21.33;;;;;;;;;;5019845;28;20043;-80
2022/12/19 00:33:40;;;;;;;56.55;20.95;;;;;;;;;;5035916;28;20025;-78
2022/12/19 00:36:07;;;;;;;52.30;20.50;;;;;;;;;;5019966;28;20048;-79
2022/12/19 00:38:32;;;;;;;58.03;22.08;;;;;;;;;;5003398;28;20029;-78
2022/12/19 00:41:21;;;;;;;59.58;21.98;;;;;;;;;;5003080;28;20420;-79
2022/12/19 00:43:57;;;;;;;55.30;21.83;;;;;;;;;;5019720;28;20033;-78
2022/12/19 00:46:23;;;;;;;52.08;20.70;;;;;;;;;;5019969;28;20036;-78
2022/12/19 00:48:48;;;;;;;52.75;19.48;;;;;;;;;;5036117;28;20021;-79
2022/12/19 00:51:15;;;;;;;57.05;21.73;;;;;;;;;;5036125;28;20087;-78
2022/12/19 00:53:41;;;;;;;54.28;21.55;;;;;;;;;;5037326;28;20473;-80
2022/12/19 00:56:09;;;;;;;48.30;20.58;;;;;;;;;;5019616;28;20037;-78
2022/12/19 00:58:34;;;;;;;58.47;21.50;;;;;;;;;;5036983;28;20040;-79
2022/12/19 01:01:11;;;;;;;55.00;21.40;;;;;;;;;;5036756;28;20033;-80
2022/12/19 01:03:36;;;;;;;53.13;21.35;;;;;;;;;;5036817;28;20041;-79
2022/12/19 01:06:02;;;;;;;56.33;22.55;;;;;;;;;;5019122;28;20042;-79
2022/12/19 01:08:27;;;;;;;59.50;22.60;;;;;;;;;;5019301;28;20118;-79
2022/12/19 01:10:52;;;;;;;52.35;21.08;;;;;;;;;;5035707;28;20091;-79
2022/12/19 01:13:19;;;;;;;59.22;22.75;;;;;;;;;;5037055;28;20025;-78
2022/12/19 01:15:44;;;;;;;56.25;21.83;;;;;;;;;;5019308;28;20103;-78
2022/12/19 01:18:10;;;;;;;60.17;21.65;;;;;;;;;;5018704;28;20518;-78
2022/12/19 01:20:44;;;;;;;55.72;22.20;;;;;;;;;;5036537;28;20032;-78
2022/12/19 01:23:09;;;;;;;56.63;21.75;;;;;;;;;;5019546;28;20042;-78
2022/12/19 01:25:35;;;;;;;52.58;21.27;;;;;;;;;;5019162;28;20421;-78
2022/12/19 01:28:01;;;;;;;55.28;22.25;;;;;;;;;;5035606;28;20029;-78
2022/12/19 01:30:27;;;;;;;57.40;23.27;;;;;;;;;;5036556;28;20469;-79
2022/12/19 01:32:52;;;;;;;59.03;21.60;;;;;;;;;;5036729;28;20037;-79
2022/12/19 01:35:18;;;;;;;59.90;22.23;;;;;;;;;;5036441;28;20344;-79
2022/12/19 01:37:43;;;;;;;55.08;22.00;;;;;;;;;;5018850;28;20163;-79
2022/12/19 01:40:10;;;;;;;58.35;22.00;;;;;;;;;;5034854;28;20045;-79
2022/12/19 01:42:36;;;;;;;56.65;23.05;;;;;;;;;;5018716;28;20110;-79
2022/12/19 01:45:07;;;;;;;54.50;22.25;;;;;;;;;;5018521;28;20033;-78
2022/12/19 01:48:10;;;;;;;52.40;21.67;;;;;;;;;;5036160;28;20029;-78
2022/12/19 01:50:40;;;;;;;54.65;20.70;;;;;;;;;;5037338;28;20041;-80
2022/12/19 01:53:06;;;;;;;54.47;21.48;;;;;;;;;;5043244;28;20099;-79
2022/12/19 01:55:32;;;;;;;55.65;22.15;;;;;;;;;;5028609;28;20034;-80
2022/12/19 01:57:57;;;;;;;57.88;22.00;;;;;;;;;;5021091;28;20032;-78
2022/12/19 02:00:22;;;;;;;59.15;22.13;;;;;;;;;;5018227;28;20037;-78
2022/12/19 02:02:53;;;;;;;57.15;22.13;;;;;;;;;;5018078;28;20044;-78
2022/12/19 02:05:18;;;;;;;60.38;23.13;;;;;;;;;;5018369;28;20029;-79
2022/12/19 02:07:44;;;;;;;54.65;21.60;;;;;;;;;;5035599;28;20454;-79
2022/12/19 02:10:09;;;;;;;54.70;21.52;;;;;;;;;;5018239;28;20025;-79
2022/12/19 02:12:36;;;;;;;53.97;21.38;;;;;;;;;;5035831;28;20044;-78
2022/12/19 02:15:01;;;;;;;51.60;21.27;;;;;;;;;;5034113;28;20035;-78
2022/12/19 02:17:48;;;;;;;50.97;21.25;;;;;;;;;;5017769;28;20026;-79
2022/12/19 02:20:35;;;;;;;52.97;22.00;;;;;;;;;;5034632;28;20029;-78
2022/12/19 02:23:23;;;;;;;51.55;20.52;;;;;;;;;;5035541;28;20073;-79
2022/12/19 02:26:17;;;;;;;53.45;21.25;;;;;;;;;;5034224;28;20026;-79
2022/12/19 02:28:51;;;;;;;53.97;20.20;;;;;;;;;;5034541;28;20029;-79
2022/12/19 02:31:38;;;;;;;48.90;19.75;;;;;;;;;;5035255;28;20045;-78
2022/12/19 02:34:48;;;;;;;51.53;19.70;;;;;;;;;;5035353;28;20038;-78
2022/12/19 02:37:22;;;;;;;56.27;19.70;;;;;;;;;;5017723;28;20041;-78
2022/12/19 02:40:10;;;;;;;56.33;20.30;;;;;;;;;;5017470;28;20284;-79
2022/12/19 02:42:38;;;;;;;48.72;19.73;;;;;;;;;;5017575;28;20095;-79
2022/12/19 02:45:05;;;;;;;50.65;21.15;;;;;;;;;;5017061;28;20095;-78
2022/12/19 02:47:31;;;;;;;56.85;20.95;;;;;;;;;;5017451;28;20102;-80
2022/12/19 02:49:56;;;;;;;54.00;20.83;;;;;;;;;;5017090;28;20397;-79
2022/12/19 02:52:22;;;;;;;53.10;20.25;;;;;;;;;;5016761;28;20033;-78
2022/12/19 02:54:51;;;;;;;47.67;18.98;;;;;;;;;;5034997;28;20175;-79
2022/12/19 02:57:40;;;;;;;50.08;20.50;;;;;;;;;;5017108;28;20033;-78
2022/12/19 03:00:07;;;;;;;53.83;20.17;;;;;;;;;;5033854;28;20128;-79
2022/12/19 03:03:03;;;;;;;54.40;19.70;;;;;;;;;;5017061;28;20037;-78
2022/12/19 03:05:45;;;;;;;52.55;20.33;;;;;;;;;;5033480;28;20292;-79
2022/12/19 03:08:42;;;;;;;54.28;20.30;;;;;;;;;;5016943;28;20112;-79
2022/12/19 03:11:12;;;;;;;53.58;21.50;;;;;;;;;;5016972;28;20030;-79
2022/12/19 03:13:47;;;;;;;55.22;21.50;;;;;;;;;;5000250;28;20041;-79
2022/12/19 03:16:12;;;;;;;50.88;19.75;;;;;;;;;;5016991;28;20039;-79
2022/12/19 03:18:38;;;;;;;59.67;22.10;;;;;;;;;;5033113;28;20025;-80
2022/12/19 03:21:11;;;;;;;52.25;20.42;;;;;;;;;;5016809;28;20311;-80
2022/12/19 03:23:37;;;;;;;53.97;22.08;;;;;;;;;;5033368;28;20087;-80
2022/12/19 03:26:05;;;;;;;50.65;20.65;;;;;;;;;;5016787;28;20430;-79
2022/12/19 03:29:04;;;;;;;50.30;20.75;;;;;;;;;;5016533;28;20087;-79
2022/12/19 03:31:30;;;;;;;52.45;20.75;;;;;;;;;;5034241;28;20091;-79
2022/12/19 03:33:58;;;;;;;52.17;22.00;;;;;;;;;;5016797;28;20096;-79
2022/12/19 03:36:26;;;;;;;52.67;22.13;;;;;;;;;;5016414;28;20025;-79
2022/12/19 03:38:52;;;;;;;48.08;20.50;;;;;;;;;;5016494;28;20029;-79
2022/12/19 03:43:07;;;;;;;54.25;22.83;;;;;;;;;;5000214;28;20343;-79
2022/12/19 03:44:04;;;;;;;49.30;20.30;;;;;;;;;;5018912;28;20481;-80
2022/12/19 03:46:29;;;;;;;51.08;21.10;;;;;;;;;;5016339;28;20076;-80
2022/12/19 03:48:55;;;;;;;56.42;21.60;;;;;;;;;;5016240;28;20064;-79
2022/12/19 03:51:34;;;;;;;58.53;22.38;;;;;;;;;;5016517;28;20037;-79
2022/12/19 03:54:02;;;;;;;54.53;22.67;;;;;;;;;;5016373;28;20139;-80
2022/12/19 03:56:39;;;;;;;59.03;23.58;;;;;;;;;;4999765;28;20107;-80
2022/12/19 03:59:41;;;;;;;58.20;22.50;;;;;;;;;;5032701;28;20438;-80
2022/12/19 04:02:07;;;;;;;61.38;22.35;;;;;;;;;;5033980;28;20124;-79
2022/12/19 04:04:35;;;;;;;62.00;23.10;;;;;;;;;;5020397;28;20505;-79
2022/12/19 04:07:00;;;;;;;58.05;21.80;;;;;;;;;;5020494;28;20615;-78
2022/12/19 04:09:26;;;;;;;57.22;22.02;;;;;;;;;;5020372;28;20021;-79
2022/12/19 04:12:15;;;;;;;64.22;22.50;;;;;;;;;;5020263;28;20033;-79
2022/12/19 04:14:41;;;;;;;65.53;23.67;;;;;;;;;;5020105;28;20037;-79
2022/12/19 04:17:27;;;;;;;56.90;22.40;;;;;;;;;;5038232;28;20028;-78
2022/12/19 04:20:00;;;;;;;52.83;20.98;;;;;;;;;;5021789;28;20029;-79
2022/12/19 04:22:46;;;;;;;59.10;21.50;;;;;;;;;;5036693;28;20037;-78
2022/12/19 04:25:14;;;;;;;56.60;21.45;;;;;;;;;;5006192;28;20029;-78
2022/12/19 04:27:41;;;;;;;57.97;22.48;;;;;;;;;;5020241;28;20119;-79
2022/12/19 04:30:07;;;;;;;59.30;21.75;;;;;;;;;;5020015;28;20029;-80
2022/12/19 04:32:33;;;;;;;57.25;22.20;;;;;;;;;;5019725;28;20374;-79
2022/12/19 04:34:59;;;;;;;52.58;21.02;;;;;;;;;;5019857;28;20029;-79
2022/12/19 04:37:24;;;;;;;51.85;22.08;;;;;;;;;;5036250;28;20041;-80
2022/12/19 04:39:50;;;;;;;49.40;21.20;;;;;;;;;;5036325;28;20041;-80
2022/12/19 04:42:15;;;;;;;55.05;21.65;;;;;;;;;;5036020;28;20502;-79
2022/12/19 04:44:41;;;;;;;54.67;21.77;;;;;;;;;;5019687;28;20033;-79
2022/12/19 04:47:06;;;;;;;54.72;21.52;;;;;;;;;;5035956;28;20447;-78
2022/12/19 04:49:32;;;;;;;52.88;21.42;;;;;;;;;;5019772;28;20037;-78
2022/12/19 04:51:57;;;;;;;50.88;21.95;;;;;;;;;;5037320;28;20036;-79
2022/12/19 04:54:23;;;;;;;53.45;22.38;;;;;;;;;;5037065;28;20033;-80
2022/12/19 04:56:48;;;;;;;52.97;22.60;;;;;;;;;;5019328;28;20044;-79
2022/12/19 04:59:13;;;;;;;58.67;23.98;;;;;;;;;;5019300;28;20069;-78
2022/12/19 05:01:39;;;;;;;60.88;24.20;;;;;;;;;;5019146;28;20139;-79
2022/12/19 05:04:04;;;;;;;67.50;25.10;;;;;;;;;;5037057;28;20044;-79
2022/12/19 05:06:30;;;;;;;65.88;25.52;;;;;;;;;;5019103;28;20132;-79
2022/12/19 05:08:55;;;;;;;74.50;26.83;;;;;;;;;;5019079;28;20121;-79
2022/12/19 05:11:21;;;;;;;79.93;28.10;;;;;;;;;;5036713;28;20033;-78
2022/12/19 05:13:48;;;;;;;76.15;27.45;;;;;;;;;;5001717;28;20109;-79
2022/12/19 05:16:14;;;;;;;81.07;28.58;;;;;;;;;;5028091;28;20026;-78
2022/12/19 05:18:40;;;;;;;76.60;29.20;;;;;;;;;;5018539;28;20036;-78
2022/12/19 05:21:06;;;;;;;83.57;29.42;;;;;;;;;;5018943;28;20112;-77
2022/12/19 05:23:31;;;;;;;76.47;28.15;;;;;;;;;;5018615;28;20033;-78
2022/12/19 05:25:57;;;;;;;69.55;27.20;;;;;;;;;;5036525;28;20168;-78
2022/12/19 05:28:26;;;;;;;67.90;27.58;;;;;;;;;;5018804;28;20037;-79
2022/12/19 05:30:51;;;;;;;67.43;27.20;;;;;;;;;;5018373;28;20040;-80
2022/12/19 05:33:17;;;;;;;84.53;31.83;;;;;;;;;;5018778;28;20033;-79
2022/12/19 05:35:42;;;;;;;85.28;32.60;;;;;;;;;;5018615;28;20034;-78
2022/12/19 05:38:08;;;;;;;79.43;31.83;;;;;;;;;;5035600;28;20033;-78
2022/12/19 05:40:33;;;;;;;89.72;33.05;;;;;;;;;;5035929;28;20041;-78
2022/12/19 05:42:59;;;;;;;87.93;34.08;;;;;;;;;;5034592;28;20071;-79
2022/12/19 05:45:24;;;;;;;99.15;35.60;;;;;;;;;;5033152;28;20068;-79
2022/12/19 05:47:50;;;;;;;94.20;34.53;;;;;;;;;;5013335;28;20033;-79
2022/12/19 05:50:15;;;;;;;80.72;31.88;;;;;;;;;;5017225;28;20407;-78
2022/12/19 05:52:44;;;;;;;82.63;31.33;;;;;;;;;;5012089;28;20045;-77
2022/12/19 05:55:10;;;;;;;79.35;29.60;;;;;;;;;;5026281;28;20026;-78
2022/12/19 05:57:36;;;;;;;72.28;28.70;;;;;;;;;;5009019;28;20032;-76
2022/12/19 06:00:03;;;;;;;72.40;28.20;;;;;;;;;;5044785;28;20071;-78
2022/12/19 06:02:31;;;;;;;71.78;27.73;;;;;;;;;;5009664;28;20049;-79
2022/12/19 06:05:00;;;;;;;76.10;28.02;;;;;;;;;;5012579;28;20056;-78
2022/12/19 06:07:32;;;;;;;131.63;52.47;;;;;;;;;;5028720;28;20596;-79
2022/12/19 06:10:05;;;;;;;100.68;37.60;;;;;;;;;;5015278;28;20033;-78
2022/12/19 06:12:30;;;;;;;85.15;35.05;;;;;;;;;;5029929;28;20029;-79
2022/12/19 06:14:56;;;;;;;78.32;33.58;;;;;;;;;;5029166;28;20415;-77
2022/12/19 06:17:21;;;;;;;115.82;50.50;;;;;;;;;;5012322;28;20571;-79
2022/12/19 06:19:47;;;;;;;120.65;52.40;;;;;;;;;;5014456;28;20104;-79
2022/12/19 06:22:12;;;;;;;99.03;44.00;;;;;;;;;;5026242;28;20030;-78
2022/12/19 06:24:39;;;;;;;98.53;40.22;;;;;;;;;;4997825;28;20037;-80
2022/12/19 06:27:04;;;;;;;131.80;53.28;;;;;;;;;;5030037;28;20041;-79
2022/12/19 06:29:30;;;;;;;99.82;42.65;;;;;;;;;;5014300;28;20029;-78
2022/12/19 06:31:57;;;;;;;108.00;53.00;;;;;;;;;;5030102;28;20433;-77
2022/12/19 06:34:23;;;;;;;76.03;28.67;;;;;;;;;;5014661;28;20114;-78
2022/12/19 06:36:48;;;;;;;76.30;27.13;;;;;;;;;;5033694;28;20033;-78
2022/12/19 06:39:17;;;;;;;72.38;27.48;;;;;;;;;;5016616;28;20029;-79
2022/12/19 06:44:33;;;;;;;67.70;26.42;;;;;;;;;;5031547;28;20088;-77
2022/12/19 06:46:58;;;;;;;77.18;27.60;;;;;;;;;;4997682;28;20413;-79
2022/12/19 06:49:24;;;;;;;74.03;27.35;;;;;;;;;;5010729;28;20478;-80
2022/12/19 06:51:50;;;;;;;75.32;27.90;;;;;;;;;;5028767;28;20044;-78
2022/12/19 06:54:17;;;;;;;82.05;29.13;;;;;;;;;;5029692;28;20029;-77
2022/12/19 06:56:42;;;;;;;86.70;31.50;;;;;;;;;;5029240;28;20471;-80
2022/12/19 06:59:13;;;;;;;89.47;33.22;;;;;;;;;;5002776;28;20040;-77
2022/12/19 07:01:52;;;;;;;90.72;33.00;;;;;;;;;;5032936;28;20122;-79
2022/12/19 07:04:22;;;;;;;84.50;32.25;;;;;;;;;;5013515;28;20132;-77
2022/12/19 07:06:48;;;;;;;86.70;32.97;;;;;;;;;;5030192;28;20057;-78
2022/12/19 07:09:18;;;;;;;88.07;33.40;;;;;;;;;;5035830;28;20037;-78
2022/12/19 07:11:44;;;;;;;97.57;34.97;;;;;;;;;;5035756;28;20155;-79
2022/12/19 07:14:09;;;;;;;113.60;39.75;;;;;;;;;;5015062;28;20465;-80
2022/12/19 07:16:35;;;;;;;116.53;42.15;;;;;;;;;;5013685;28;20021;-77
2022/12/19 07:19:00;;;;;;;124.22;42.40;;;;;;;;;;5011257;28;20079;-78
2022/12/19 07:21:26;;;;;;;103.63;35.30;;;;;;;;;;4995203;28;20121;-79
2022/12/19 07:23:51;;;;;;;85.18;31.92;;;;;;;;;;5029287;28;20103;-78
2022/12/19 07:26:17;;;;;;;80.82;28.88;;;;;;;;;;5031903;28;20029;-78
2022/12/19 07:28:43;;;;;;;78.90;31.35;;;;;;;;;;5015407;28;20030;-78
2022/12/19 07:31:09;;;;;;;82.20;28.38;;;;;;;;;;5016070;28;20450;-78
2022/12/19 07:33:34;;;;;;;75.47;27.00;;;;;;;;;;5034453;28;20036;-79
2022/12/19 07:36:00;;;;;;;70.93;25.40;;;;;;;;;;5017344;28;20034;-79
2022/12/19 07:38:28;;;;;;;78.30;27.77;;;;;;;;;;5035300;28;20038;-79
2022/12/19 07:40:58;;;;;;;71.07;25.38;;;;;;;;;;5034164;28;20037;-80
2022/12/19 07:43:23;;;;;;;79.95;27.38;;;;;;;;;;5032704;28;20038;-78
2022/12/19 07:45:53;;;;;;;85.53;28.88;;;;;;;;;;5015593;28;20370;-77
2022/12/19 07:48:19;;;;;;;74.57;24.75;;;;;;;;;;4981870;28;20064;-76
2022/12/19 07:50:47;;;;;;;86.82;30.73;;;;;;;;;;5022782;28;20415;-78
2022/12/19 07:53:17;;;;;;;86.65;29.25;;;;;;;;;;5016615;28;20128;-79
2022/12/19 07:55:53;;;;;;;96.68;31.80;;;;;;;;;;4992546;28;20136;-77
2022/12/19 07:58:19;;;;;;;103.43;31.33;;;;;;;;;;5017477;28;20026;-79
2022/12/19 08:00:46;;;;;;;105.03;32.55;;;;;;;;;;4994619;28;20698;-78
2022/12/19 08:03:12;;;;;;;115.25;32.22;;;;;;;;;;4962282;28;20151;-80
2022/12/19 08:05:48;;;;;;;129.38;38.75;;;;;;;;;;5020081;28;20570;-78
2022/12/19 08:08:14;;;;;;;124.03;34.75;;;;;;;;;;5013381;28;20079;-79
2022/12/19 08:10:40;;;;;;;124.25;34.45;;;;;;;;;;5011065;28;20033;-80
2022/12/19 08:13:07;;;;;;;118.50;35.03;;;;;;;;;;5028539;28;20175;-79
2022/12/19 08:15:34;;;;;;;116.35;33.42;;;;;;;;;;5011622;28;20034;-79
2022/12/19 08:18:05;;;;;;;93.90;27.38;;;;;;;;;;5014310;28;20537;-80
2022/12/19 08:20:30;;;;;;;90.15;29.33;;;;;;;;;;4995570;28;20042;-81
2022/12/19 08:22:56;;;;;;;99.28;31.58;;;;;;;;;;5029701;28;20041;-80
2022/12/19 08:25:21;;;;;;;95.38;25.17;;;;;;;;;;5024734;28;20022;-80
2022/12/19 08:27:47;;;;;;;87.28;28.90;;;;;;;;;;5024229;28;20037;-78
2022/12/19 08:30:12;;;;;;;104.20;31.80;;;;;;;;;;5013149;28;20038;-82
2022/12/19 08:32:38;;;;;;;111.07;30.85;;;;;;;;;;5007385;28;20048;-79
2022/12/19 08:35:05;;;;;;;116.80;36.25;;;;;;;;;;5034044;28;20161;-78
2022/12/19 08:37:31;;;;;;;129.10;38.50;;;;;;;;;;5029741;28;20363;-80
2022/12/19 08:39:56;;;;;;;112.60;34.83;;;;;;;;;;5028624;28;20294;-78
2022/12/19 08:42:22;;;;;;;115.03;36.90;;;;;;;;;;4994052;28;20138;-78
2022/12/19 08:44:47;;;;;;;104.80;35.47;;;;;;;;;;5030061;28;20099;-78
2022/12/19 08:47:13;;;;;;;98.35;34.70;;;;;;;;;;5030148;28;20037;-78
2022/12/19 08:49:39;;;;;;;95.28;31.45;;;;;;;;;;5031248;28;20072;-78
2022/12/19 08:52:04;;;;;;;103.22;31.80;;;;;;;;;;5031884;28;20061;-77
2022/12/19 08:54:30;;;;;;;106.97;34.15;;;;;;;;;;5033935;28;20032;-78
2022/12/19 08:56:55;;;;;;;101.38;32.83;;;;;;;;;;5027534;28;20026;-78
2022/12/19 08:59:21;;;;;;;104.93;33.33;;;;;;;;;;5032548;28;20080;-79
2022/12/19 09:01:50;;;;;;;103.03;31.75;;;;;;;;;;5029531;28;20044;-77
2022/12/19 09:04:15;;;;;;;92.50;31.52;;;;;;;;;;4993506;28;20094;-78
2022/12/19 09:06:41;;;;;;;86.05;28.52;;;;;;;;;;5013008;28;21554;-76
2022/12/19 09:09:06;;;;;;;87.47;27.48;;;;;;;;;;5031095;28;20029;-78
2022/12/19 09:11:32;;;;;;;76.20;25.98;;;;;;;;;;4996995;28;20029;-79
2022/12/19 09:13:58;;;;;;;82.88;28.38;;;;;;;;;;4996589;28;20123;-79
2022/12/19 09:16:24;;;;;;;81.25;30.02;;;;;;;;;;5035555;28;20095;-77
2022/12/19 09:18:51;;;;;;;88.53;28.33;;;;;;;;;;5033999;28;20029;-76
2022/12/19 09:21:17;;;;;;;95.95;30.38;;;;;;;;;;5035267;28;20164;-78
2022/12/19 09:23:46;;;;;;;76.53;27.70;;;;;;;;;;5016941;28;20033;-81
2022/12/19 09:26:12;;;;;;;83.80;27.55;;;;;;;;;;5018132;28;20030;-79
2022/12/19 09:28:41;;;;;;;74.50;26.98;;;;;;;;;;5033709;28;20029;-78
2022/12/19 09:31:11;;;;;;;80.90;27.65;;;;;;;;;;4982333;28;20033;-76
2022/12/19 09:33:36;;;;;;;78.88;25.58;;;;;;;;;;5033911;28;20498;-78
2022/12/19 09:36:02;;;;;;;88.30;28.27;;;;;;;;;;5036947;28;20041;-78
2022/12/19 09:38:28;;;;;;;75.35;26.10;;;;;;;;;;5043818;28;20133;-78
2022/12/19 09:40:57;;;;;;;89.97;29.45;;;;;;;;;;5024825;28;20033;-79
2022/12/19 09:43:41;;;;;;;89.88;30.13;;;;;;;;;;5032184;28;20437;-79
2022/12/19 09:46:19;;;;;;;98.28;30.55;;;;;;;;;;5045156;28;20029;-79
2022/12/19 09:48:45;;;;;;;92.80;29.90;;;;;;;;;;5044122;28;20430;-78
2022/12/19 09:51:20;;;;;;;94.18;30.30;;;;;;;;;;5021100;28;20041;-77
2022/12/19 09:54:11;;;;;;;99.13;33.55;;;;;;;;;;5027511;28;20057;-78
2022/12/19 09:56:38;;;;;;;104.53;35.03;;;;;;;;;;5048299;28;20048;-77
2022/12/19 09:59:11;;;;;;;103.63;30.80;;;;;;;;;;5049005;28;20047;-78
2022/12/19 10:01:58;;;;;;;109.43;34.05;;;;;;;;;;4997274;28;20521;-78
2022/12/19 10:04:25;;;;;;;111.75;32.17;;;;;;;;;;5044162;28;20041;-77
2022/12/19 10:06:50;;;;;;;122.30;39.80;;;;;;;;;;4985866;28;20046;-78
2022/12/19 10:09:20;;;;;;;104.65;32.15;;;;;;;;;;5033944;28;20075;-78
2022/12/19 10:12:05;;;;;;;139.95;37.05;;;;;;;;;;5034733;28;20385;-77
2022/12/19 10:14:50;;;;;;;125.47;37.00;;;;;;;;;;4999907;28;20056;-77
2022/12/19 10:17:18;;;;;;;106.20;31.58;;;;;;;;;;5029537;28;20144;-79
2022/12/19 10:19:53;;;;;;;120.47;36.53;;;;;;;;;;5013307;28;20394;-77
2022/12/19 10:22:21;;;;;;;130.93;36.40;;;;;;;;;;5031541;28;20124;-77
2022/12/19 10:25:05;;;;;;;116.97;35.03;;;;;;;;;;5026922;28;20042;-79
2022/12/19 10:27:43;;;;;;;121.28;33.13;;;;;;;;;;5003647;28;20127;-76
2022/12/19 10:30:11;;;;;;;101.10;33.50;;;;;;;;;;5012708;28;20044;-81
2022/12/19 10:32:40;;;;;;;112.65;35.63;;;;;;;;;;5032587;28;20112;-80
2022/12/19 10:35:16;;;;;;;109.07;34.38;;;;;;;;;;5033655;28;20044;-77
2022/12/19 10:37:49;;;;;;;113.95;35.80;;;;;;;;;;5031878;28;20039;-77
2022/12/19 10:40:21;;;;;;;88.68;27.92;;;;;;;;;;5031224;28;20037;-79
2022/12/19 10:43:08;;;;;;;90.18;31.33;;;;;;;;;;5031992;28;20037;-78
2022/12/19 10:45:58;;;;;;;92.43;31.08;;;;;;;;;;4998734;28;20573;-79
2022/12/19 10:48:25;;;;;;;;;;;;;;;;;;5029001;28;20088;-79
2022/12/19 10:51:22;;;;;;;89.90;30.25;;;;;;;;;;5018366;28;20258;-76
2022/12/19 10:53:58;;;;;;;91.88;30.92;;;;;;;;;;5028013;28;20102;-77
2022/12/19 10:56:28;;;;;;;100.43;31.67;;;;;;;;;;5006383;28;20030;-78
2022/12/19 10:58:56;;;;;;;97.57;30.13;;;;;;;;;;4994085;28;20048;-77
2022/12/19 11:01:39;;;;;;;93.50;33.80;;;;;;;;;;5015687;28;20048;-81
2022/12/19 11:04:21;;;;;;;84.38;27.25;;;;;;;;;;5000611;28;20121;-79
2022/12/19 11:07:12;;;;;;;86.90;27.20;;;;;;;;;;5032949;28;20094;-78
2022/12/19 11:09:42;;;;;;;87.47;28.88;;;;;;;;;;5029192;28;20034;-77
2022/12/19 11:12:17;;;;;;;88.03;29.88;;;;;;;;;;5009984;28;20489;-78
2022/12/19 11:15:07;;;;;;;73.80;26.95;;;;;;;;;;5011156;28;20099;-77
2022/12/19 11:17:33;;;;;;;85.60;31.70;;;;;;;;;;5028948;28;20041;-78
2022/12/19 11:19:58;;;;;;;94.10;33.28;;;;;;;;;;5029372;28;20363;-79
2022/12/19 11:22:30;;;;;;;84.22;28.15;;;;;;;;;;5031756;28;20037;-79
2022/12/19 11:24:55;;;;;;;88.15;32.20;;;;;;;;;;5015589;28;20134;-79
2022/12/19 11:27:39;;;;;;;77.88;26.25;;;;;;;;;;5032940;28;20064;-77
2022/12/19 11:30:14;;;;;;;72.38;26.65;;;;;;;;;;5015143;28;20037;-77
2022/12/19 11:32:44;;;;;;;73.28;25.70;;;;;;;;;;5034916;28;20033;-80
2022/12/19 11:35:21;;;;;;;70.28;24.38;;;;;;;;;;5013901;28;20504;-80
2022/12/19 11:38:00;;;;;;;74.97;26.02;;;;;;;;;;5011163;28;20236;-81
2022/12/19 11:40:48;;;;;;;70.80;23.60;;;;;;;;;;5010720;28;20041;-81
2022/12/19 11:43:31;;;;;;;80.00;26.50;;;;;;;;;;5009002;28;20513;-81
2022/12/19 11:46:35;;;;;;;84.72;30.02;;;;;;;;;;5008025;28;20034;-81
2022/12/19 11:49:19;;;;;;;71.53;25.52;;;;;;;;;;4986970;28;20046;-80
2022/12/19 11:52:26;;;;;;;75.88;24.95;;;;;;;;;;5010117;28;20034;-81
2022/12/19 11:55:15;;;;;;;77.38;27.30;;;;;;;;;;4994477;28;20041;-79
2022/12/19 11:57:42;;;;;;;85.32;28.77;;;;;;;;;;4996184;28;20101;-82
2022/12/19 12:00:19;;;;;;;61.83;20.50;;;;;;;;;;4991008;28;20125;-79
2022/12/19 12:03:15;;;;;;;65.32;21.48;;;;;;;;;;4961121;28;20385;-80
2022/12/19 12:05:45;;;;;;;71.72;21.65;;;;;;;;;;5012341;28;20034;-80
2022/12/19 12:09:00;;;;;;;62.65;20.95;;;;;;;;;;5001459;28;20060;-80
2022/12/19 12:11:32;;;;;;;65.70;22.10;;;;;;;;;;4942466;28;20046;-79
2022/12/19 12:14:05;;;;;;;59.35;21.52;;;;;;;;;;4992616;28;20030;-79
2022/12/19 12:16:51;;;;;;;68.55;22.67;;;;;;;;;;5009326;28;20033;-79
2022/12/19 12:19:41;;;;;;;61.53;20.67;;;;;;;;;;5009890;28;20037;-81
2022/12/19 12:22:12;;;;;;;55.45;18.27;;;;;;;;;;4993180;28;20046;-82
2022/12/19 12:24:51;;;;;;;66.45;22.70;;;;;;;;;;5012511;28;20022;-80
2022/12/19 12:27:32;;;;;;;74.88;25.45;;;;;;;;;;5013234;28;20029;-80
2022/12/19 12:30:04;;;;;;;51.80;18.17;;;;;;;;;;4990771;28;20042;-80
2022/12/19 12:32:56;;;;;;;69.97;23.48;;;;;;;;;;5013053;28;20029;-79
2022/12/19 12:35:28;;;;;;;66.65;22.08;;;;;;;;;;5012249;28;20466;-80
2022/12/19 12:38:19;;;;;;;52.08;18.90;;;;;;;;;;5014844;28;20026;-79
2022/12/19 12:40:57;;;;;;;55.42;17.95;;;;;;;;;;5002968;28;20073;-80
2022/12/19 12:43:40;;;;;;;71.60;25.05;;;;;;;;;;4998011;28;20037;-79
2022/12/19 12:46:11;;;;;;;61.90;20.05;;;;;;;;;;5015705;28;20034;-81
2022/12/19 12:48:41;;;;;;;75.55;28.75;;;;;;;;;;4998747;28;20032;-80
2022/12/19 12:51:06;;;;;;;77.55;24.90;;;;;;;;;;4997889;28;20127;-80
2022/12/19 12:53:34;;;;;;;86.00;27.02;;;;;;;;;;4995455;28;20093;-79
2022/12/19 12:55:59;;;;;;;73.93;24.15;;;;;;;;;;4995496;28;20056;-79
2022/12/19 12:58:43;;;;;;;81.03;27.05;;;;;;;;;;4979963;28;20112;-79
2022/12/19 13:01:29;;;;;;;81.43;25.42;;;;;;;;;;5011775;28;20038;-80
2022/12/19 13:04:11;;;;;;;82.07;24.33;;;;;;;;;;5009975;28;20061;-81
2022/12/19 13:06:36;;;;;;;84.05;27.27;;;;;;;;;;5034480;28;20058;-80
2022/12/19 13:09:08;;;;;;;69.53;23.40;;;;;;;;;;5035051;28;20036;-80
2022/12/19 13:14:34;;;;;;;71.55;26.35;;;;;;;;;;5021430;28;20362;-80
2022/12/19 13:17:03;;;;;;;80.30;27.75;;;;;;;;;;5037240;28;20041;-80
2022/12/19 13:19:33;;;;;;;72.35;24.35;;;;;;;;;;5025861;28;20117;-80
2022/12/19 13:22:07;;;;;;;77.70;25.27;;;;;;;;;;5018831;28;20091;-79
2022/12/19 13:24:49;;;;;;;79.63;25.85;;;;;;;;;;5035299;28;20036;-80
2022/12/19 13:27:18;;;;;;;65.13;22.80;;;;;;;;;;5017397;28;20037;-80
2022/12/19 13:30:11;;;;;;;74.85;22.88;;;;;;;;;;5035203;28;20033;-80
2022/12/19 13:32:39;;;;;;;78.82;27.25;;;;;;;;;;5015542;28;20456;-80
2022/12/19 13:35:25;;;;;;;76.70;28.00;;;;;;;;;;4996135;28;20183;-80
2022/12/19 13:38:00;;;;;;;76.88;26.77;;;;;;;;;;5014624;28;20399;-80
2022/12/19 13:40:33;;;;;;;63.45;20.38;;;;;;;;;;4999616;28;20125;-81
2022/12/19 13:45:54;;;;;;;68.22;24.50;;;;;;;;;;5016445;28;20057;-80
2022/12/19 13:48:28;;;;;;;65.38;23.35;;;;;;;;;;5016367;28;20033;-81
2022/12/19 13:50:54;;;;;;;52.83;18.25;;;;;;;;;;4998658;28;20455;-80
2022/12/19 13:53:22;;;;;;;65.70;24.05;;;;;;;;;;4998892;28;20045;-80
2022/12/19 13:55:47;;;;;;;68.80;24.20;;;;;;;;;;4982438;28;20041;-80
2022/12/19 13:58:32;;;;;;;55.25;20.20;;;;;;;;;;5016252;28;20112;-81
2022/12/19 14:01:01;;;;;;;84.75;28.75;;;;;;;;;;4998478;28;20464;-80
2022/12/19 14:03:37;;;;;;;60.55;21.05;;;;;;;;;;4998332;28;20434;-80
2022/12/19 14:06:10;;;;;;;72.97;27.67;;;;;;;;;;4982050;28;20065;-80
2022/12/19 14:08:36;;;;;;;60.15;21.48;;;;;;;;;;4966139;28;20080;-80
2022/12/19 14:11:01;;;;;;;85.25;27.42;;;;;;;;;;4991156;28;20065;-80
2022/12/19 14:16:15;;;;;;;71.85;26.33;;;;;;;;;;5014827;28;20037;-80
2022/12/19 14:18:40;;;;;;;71.47;25.10;;;;;;;;;;5015033;28;20029;-81
2022/12/19 14:21:21;;;;;;;74.03;26.08;;;;;;;;;;5014067;28;20463;-80
2022/12/19 14:23:46;;;;;;;74.50;28.45;;;;;;;;;;5014724;28;20044;-78
2022/12/19 14:26:32;;;;;;;71.25;26.45;;;;;;;;;;5014767;28;20030;-79
2022/12/19 14:29:05;;;;;;;68.85;25.00;;;;;;;;;;5012216;28;20065;-80
2022/12/19 14:31:31;;;;;;;54.88;21.17;;;;;;;;;;5014441;28;20362;-80
2022/12/19 14:33:57;;;;;;;78.18;28.95;;;;;;;;;;5014397;28;20037;-80
2022/12/19 14:36:27;;;;;;;63.70;24.08;;;;;;;;;;5015057;28;20034;-82
2022/12/19 14:38:52;;;;;;;56.83;20.90;;;;;;;;;;5014540;28;20116;-80
2022/12/19 14:44:15;;;;;;;63.38;22.58;;;;;;;;;;5015152;28;20134;-80
2022/12/19 14:46:40;;;;;;;63.58;24.00;;;;;;;;;;5014329;28;20036;-80
2022/12/19 14:49:32;;;;;;;62.28;25.70;;;;;;;;;;5014595;28;20033;-80
2022/12/19 14:51:58;;;;;;;62.08;23.65;;;;;;;;;;5012722;28;20050;-81
2022/12/19 14:54:24;;;;;;;61.65;26.30;;;;;;;;;;4997682;28;20084;-80